createdAt,value
2022-09-18T00:04:52.702Z,1.67
2022-09-18T00:09:57.103Z,1.90
2022-09-18T00:15:00.093Z,1.90
2022-09-18T00:20:03.549Z,1.90
2022-09-18T00:25:08.805Z,1.58
2022-09-18T00:30:12.575Z,1.88
2022-09-18T00:35:16.379Z,1.27
2022-09-18T00:40:20.849Z,1.30
2022-09-18T00:45:24.039Z,1.43
2022-09-18T00:50:27.711Z,1.10
2022-09-18T00:55:35.455Z,1.40
2022-09-18T01:00:38.803Z,1.10
2022-09-18T01:06:00.270Z,0.70
2022-09-18T01:11:18.953Z,0.73
2022-09-18T01:16:28.300Z,0.70
2022-09-18T01:21:35.374Z,0.77
2022-09-18T01:26:54.492Z,0.60
2022-09-18T01:32:05.530Z,0.65
2022-09-18T01:37:15.077Z,0.75
2022-09-18T01:42:21.961Z,0.60
2022-09-18T01:47:32.165Z,0.50
2022-09-18T01:52:39.291Z,0.80
2022-09-18T01:57:49.774Z,0.73
2022-09-18T02:03:00.584Z,0.70
2022-09-18T02:08:12.667Z,1.30
2022-09-18T02:13:19.939Z,1.08
2022-09-18T02:18:31.537Z,0.73
2022-09-18T02:23:34.977Z,0.82
2022-09-18T02:28:40.090Z,1.15
2022-09-18T02:33:44.874Z,1.05
2022-09-18T02:38:56.721Z,1.23
2022-09-18T02:44:07.917Z,1.98
2022-09-18T02:49:25.948Z,1.70
2022-09-18T02:54:36.279Z,1.75
2022-09-18T02:59:43.039Z,2.05
2022-09-18T03:04:52.093Z,2.53
2022-09-18T03:10:15.841Z,1.55
2022-09-18T03:15:19.082Z,1.65
2022-09-18T03:20:23.628Z,1.80
2022-09-18T03:25:28.506Z,2.58
2022-09-18T03:30:31.888Z,2.17
2022-09-18T03:35:36.608Z,1.88
2022-09-18T03:40:47.149Z,2.53
2022-09-18T03:45:50.963Z,2.33
2022-09-18T03:50:55.752Z,2.50
2022-09-18T03:55:58.842Z,2.60
2022-09-18T04:01:13.579Z,2.47
2022-09-18T04:06:43.761Z,2.70
2022-09-18T04:12:07.829Z,3.08
2022-09-18T04:17:11.362Z,3.25
2022-09-18T04:22:15.909Z,2.03
2022-09-18T04:27:19.081Z,2.15
2022-09-18T04:32:25.362Z,2.28
2022-09-18T04:37:30.037Z,2.85
2022-09-18T04:42:34.950Z,2.90
2022-09-18T04:47:38.238Z,1.90
2022-09-18T04:52:44.326Z,3.17
2022-09-18T04:57:51.223Z,1.95
2022-09-18T05:02:57.741Z,2.17
2022-09-18T05:08:05.273Z,2.17
2022-09-18T05:13:08.937Z,1.87
2022-09-18T05:18:17.839Z,2.10
2022-09-18T05:23:22.958Z,2.20
2022-09-18T05:28:26.191Z,1.95
2022-09-18T05:33:31.381Z,2.00
2022-09-18T05:38:36.303Z,1.65
2022-09-18T05:43:45.033Z,2.40
2022-09-18T05:48:49.479Z,1.83
2022-09-18T05:53:54.123Z,2.17
2022-09-18T05:59:01.097Z,1.92
2022-09-18T06:04:05.944Z,1.75
2022-09-18T06:09:22.780Z,3.55
2022-09-18T06:14:25.876Z,1.80
2022-09-18T06:19:30.059Z,1.88
2022-09-18T06:24:35.951Z,1.55
2022-09-18T06:29:48.684Z,1.98
2022-09-18T06:35:01.927Z,1.80
2022-09-18T06:40:07.297Z,1.52
2022-09-18T06:45:24.877Z,2.03
2022-09-18T06:50:28.280Z,1.60
2022-09-18T06:55:33.157Z,1.30
2022-09-18T07:00:39.754Z,1.33
2022-09-18T07:05:45.697Z,2.25
2022-09-18T07:11:02.182Z,1.50
2022-09-18T07:16:05.972Z,1.63
2022-09-18T07:21:09.334Z,1.20
2022-09-18T07:26:16.640Z,1.13
2022-09-18T07:31:22.753Z,1.17
2022-09-18T07:36:27.365Z,1.10
2022-09-18T07:41:32.350Z,1.35
2022-09-18T07:46:36.564Z,1.17
2022-09-18T07:51:42.527Z,1.20
2022-09-18T08:01:57.423Z,1.13
2022-09-18T08:07:04.405Z,1.90
2022-09-18T08:12:27.474Z,1.48
2022-09-18T08:17:46.531Z,2.25
2022-09-18T08:23:07.059Z,1.08
2022-09-18T08:28:14.033Z,1.33
2022-09-18T08:33:25.036Z,1.70
2022-09-18T08:38:28.618Z,1.10
2022-09-18T08:44:01.019Z,1.02
2022-09-18T08:54:33.440Z,1.23
2022-09-18T08:59:54.727Z,1.83
2022-09-18T09:05:03.007Z,1.48
2022-09-18T09:10:31.198Z,1.08
2022-09-18T09:15:41.553Z,1.13
2022-09-18T09:20:53.082Z,1.00
2022-09-18T09:26:10.212Z,0.85
2022-09-18T09:31:38.215Z,1.15
2022-09-18T09:37:14.151Z,0.90
2022-09-18T09:42:21.973Z,1.50
2022-09-18T09:47:36.916Z,1.67
2022-09-18T09:52:46.571Z,0.93
2022-09-18T09:58:06.328Z,0.90
2022-09-18T10:03:35.318Z,0.73
2022-09-18T10:08:46.581Z,1.42
2022-09-18T10:13:55.495Z,1.20
2022-09-18T10:19:01.235Z,1.10
2022-09-18T10:24:14.453Z,1.08
2022-09-18T10:29:18.571Z,1.10
2022-09-18T10:34:41.018Z,0.63
2022-09-18T10:39:52.387Z,0.60
2022-09-18T10:45:01.732Z,0.70
2022-09-18T10:50:17.828Z,1.02
2022-09-18T10:55:24.903Z,0.98
2022-09-18T11:00:41.928Z,0.90
2022-09-18T11:05:54.326Z,0.57
2022-09-18T11:11:03.523Z,0.73
2022-09-18T11:16:09.537Z,0.65
2022-09-18T11:21:14.238Z,0.75
2022-09-18T11:26:21.195Z,0.60
2022-09-18T11:31:28.161Z,0.88
2022-09-18T11:36:40.962Z,0.60
2022-09-18T11:41:48.006Z,0.68
2022-09-18T11:47:09.491Z,1.40
2022-09-18T11:52:18.483Z,0.75
2022-09-18T11:57:36.101Z,0.55
2022-09-18T12:02:47.729Z,0.43
2022-09-18T12:08:00.167Z,0.50
2022-09-18T12:13:39.638Z,0.65
2022-09-18T12:18:54.076Z,0.85
2022-09-18T12:23:58.559Z,0.82
2022-09-18T12:29:15.363Z,0.57
2022-09-18T12:34:27.039Z,1.13
2022-09-18T12:40:02.465Z,0.65
2022-09-18T12:45:40.852Z,0.52
2022-09-18T12:50:58.399Z,0.90
2022-09-18T12:56:18.055Z,0.60
2022-09-18T13:01:27.975Z,0.80
2022-09-18T13:06:37.209Z,0.57
2022-09-18T13:11:44.629Z,0.50
2022-09-18T13:16:52.139Z,0.50
2022-09-18T13:21:57.550Z,0.77
2022-09-18T13:27:04.753Z,0.60
2022-09-18T13:32:07.764Z,0.47
2022-09-18T13:37:16.919Z,0.60
2022-09-18T13:42:33.723Z,0.63
2022-09-18T13:48:01.453Z,0.80
2022-09-18T13:53:05.414Z,0.93
2022-09-18T13:58:35.937Z,0.68
2022-09-18T14:03:41.027Z,0.70
2022-09-18T14:08:44.481Z,0.65
2022-09-18T14:13:53.945Z,0.68
2022-09-18T14:19:01.813Z,0.70
2022-09-18T14:24:39.681Z,0.57
2022-09-18T14:29:46.966Z,0.90
2022-09-18T14:34:54.215Z,0.57
2022-09-18T14:39:58.808Z,0.60
2022-09-18T14:45:26.862Z,0.67
2022-09-18T14:50:33.870Z,0.73
2022-09-18T14:55:41.925Z,0.90
2022-09-18T15:00:51.115Z,0.80
2022-09-18T15:05:57.242Z,0.57
2022-09-18T15:11:00.657Z,0.98
2022-09-18T15:16:06.079Z,0.80
2022-09-18T15:21:22.471Z,0.70
2022-09-18T15:26:30.800Z,0.75
2022-09-18T15:31:35.480Z,1.08
2022-09-18T15:36:41.233Z,1.95
2022-09-18T15:41:45.979Z,0.45
2022-09-18T15:46:50.614Z,1.23
2022-09-18T15:51:54.333Z,0.70
2022-09-18T15:56:59.957Z,0.70
2022-09-18T16:07:22.517Z,1.00
2022-09-18T16:17:59.748Z,0.50
2022-09-18T16:23:24.327Z,1.55
2022-09-18T16:28:30.432Z,0.98
2022-09-18T16:33:48.473Z,0.82
2022-09-18T16:38:52.088Z,1.00
2022-09-18T16:43:56.156Z,1.35
2022-09-18T16:49:02.008Z,0.80
2022-09-18T16:54:05.646Z,1.20
2022-09-18T16:59:08.922Z,1.10
2022-09-18T17:04:13.323Z,1.15
2022-09-18T17:09:16.479Z,1.20
2022-09-18T17:14:19.987Z,1.60
2022-09-18T17:19:24.415Z,1.10
2022-09-18T17:24:28.077Z,2.50
2022-09-18T17:29:31.318Z,2.25
2022-09-18T17:34:35.818Z,1.60
2022-09-18T17:39:39.555Z,1.97
2022-09-18T17:44:42.655Z,1.63
2022-09-18T17:49:47.210Z,1.20
2022-09-18T17:54:50.502Z,1.83
2022-09-18T17:59:53.595Z,1.50
2022-09-18T18:04:58.656Z,2.35
2022-09-18T18:10:01.838Z,1.10
2022-09-18T18:15:06.091Z,0.95
2022-09-18T18:20:11.023Z,1.00
2022-09-18T18:25:14.332Z,1.10
2022-09-18T18:30:18.817Z,0.95
2022-09-18T18:35:23.303Z,1.25
2022-09-18T18:40:27.087Z,1.30
2022-09-18T18:45:34.153Z,0.70
2022-09-18T18:50:42.716Z,1.77
2022-09-18T18:55:48.496Z,0.90
2022-09-18T19:00:52.040Z,1.08
2022-09-18T19:05:57.379Z,1.40
2022-09-18T19:11:03.560Z,1.58
2022-09-18T19:16:07.114Z,1.40
2022-09-18T19:21:11.612Z,1.50
2022-09-18T19:26:15.129Z,1.48
2022-09-18T19:31:19.415Z,1.98
2022-09-18T19:36:26.286Z,1.38
2022-09-18T19:41:37.607Z,1.50
2022-09-18T19:46:41.009Z,1.67
2022-09-18T19:51:45.766Z,1.55
2022-09-18T19:56:49.511Z,1.60
2022-09-18T20:01:53.620Z,1.60
2022-09-18T20:06:58.034Z,1.85
2022-09-18T20:12:01.962Z,1.35
2022-09-18T20:17:05.129Z,1.67
2022-09-18T20:22:09.642Z,1.40
2022-09-18T20:27:13.008Z,2.00
2022-09-18T20:32:16.745Z,0.90
2022-09-18T20:37:21.159Z,2.08
2022-09-18T20:42:24.538Z,1.45
2022-09-18T20:47:28.891Z,1.25
2022-09-18T20:52:36.278Z,1.33
2022-09-18T20:57:39.899Z,1.60
2022-09-18T21:02:44.245Z,1.30
2022-09-18T21:07:48.720Z,2.63
2022-09-18T21:12:52.730Z,1.45
2022-09-18T21:17:55.754Z,0.90
2022-09-18T21:23:18.683Z,1.30
2022-09-18T21:28:22.179Z,1.35
2022-09-18T21:33:25.658Z,1.30
2022-09-18T21:38:30.292Z,0.93
2022-09-18T21:43:34.242Z,1.03
2022-09-18T21:48:38.934Z,1.60
2022-09-18T21:53:44.865Z,1.58
2022-09-18T21:58:48.343Z,1.50
2022-09-18T22:03:54.819Z,1.33
2022-09-18T22:09:00.162Z,1.23
2022-09-18T22:14:06.497Z,1.60
2022-09-18T22:19:10.298Z,1.63
2022-09-18T22:24:18.812Z,1.33
2022-09-18T22:29:24.461Z,1.75
2022-09-18T22:34:29.081Z,1.70
2022-09-18T22:39:33.556Z,1.27
2022-09-18T22:44:36.870Z,2.07
2022-09-18T22:49:40.236Z,1.50
2022-09-18T22:54:44.616Z,1.77
2022-09-18T22:59:47.670Z,1.52
2022-09-18T23:04:50.765Z,1.45
2022-09-18T23:09:55.161Z,1.63
2022-09-18T23:14:58.232Z,1.83
2022-09-18T23:20:01.709Z,1.63
2022-09-18T23:25:07.181Z,1.45
2022-09-18T23:35:13.954Z,1.30
2022-09-18T23:40:18.641Z,1.75
2022-09-18T23:45:21.977Z,1.48
2022-09-18T23:50:25.083Z,1.67
2022-09-18T23:55:29.626Z,1.20
